Time;durP1;ratioP1;P1;durP2;ratioP2;P2;SDS_P1;SDS_P2;PMS_P1;PMS_P2;Temp;Humidity;BMP_temperature;BMP_pressure;BME280_temperature;BME280_humidity;BME280_pressure;Samples;Min_cycle;Max_cycle;Signal;HPM_P1;HPM_P2
2023/10/08 00:01:21;;;;;;;12.17;4.30;;;;;;;17.15;42.64;99931.10;124840;1099;104186;-75
2023/10/08 00:03:58;;;;;;;10.60;4.23;;;;;;;17.13;42.77;99932.01;124446;1099;104262;-75
2023/10/08 00:06:30;;;;;;;10.43;3.93;;;;;;;17.12;42.43;99933.75;124797;1098;104307;-74
2023/10/08 00:09:06;;;;;;;14.43;5.13;;;;;;;17.16;42.61;99937.31;124802;1099;104172;-75
2023/10/08 00:11:39;;;;;;;12.03;4.17;;;;;;;17.15;42.91;99940.83;124575;1099;104323;-75
2023/10/08 00:14:10;;;;;;;8.08;4.10;;;;;;;17.17;42.85;99929.36;124845;1099;101936;-75
2023/10/08 00:16:42;;;;;;;11.50;4.13;;;;;;;17.22;42.86;99918.75;124857;1099;104224;-76
2023/10/08 00:19:15;;;;;;;12.00;4.37;;;;;;;17.28;42.81;99907.23;124750;1099;104172;-74
2023/10/08 00:21:48;;;;;;;13.10;4.40;;;;;;;17.33;42.90;99902.83;124446;1099;102158;-75
2023/10/08 00:24:26;;;;;;;9.98;4.03;;;;;;;17.37;43.12;99904.57;124419;1099;104255;-75
2023/10/08 00:27:00;;;;;;;8.43;3.67;;;;;;;17.40;42.79;99904.56;124693;1099;104162;-75
2023/10/08 00:29:31;;;;;;;8.15;3.58;;;;;;;17.42;42.85;99897.48;124911;1099;104265;-75
2023/10/08 00:32:11;;;;;;;9.50;3.97;;;;;;;17.43;43.16;99894.83;124616;1099;102002;-76
2023/10/08 00:34:43;;;;;;;11.30;4.03;;;;;;;17.46;43.30;99893.08;124930;1099;104156;-75
2023/10/08 00:37:15;;;;;;;12.50;4.10;;;;;;;17.48;43.11;99892.17;124975;1099;102013;-77
2023/10/08 00:39:46;;;;;;;8.10;3.70;;;;;;;17.50;43.25;99890.42;124921;1099;104313;-75
2023/10/08 00:42:18;;;;;;;11.97;4.07;;;;;;;17.52;43.10;99877.15;124631;1099;102268;-75
2023/10/08 00:44:51;;;;;;;12.17;4.23;;;;;;;17.54;43.16;99878.89;124727;1099;104326;-75
2023/10/08 00:47:26;;;;;;;12.65;3.83;;;;;;;17.56;43.31;99879.79;124380;1099;101968;-76
2023/10/08 00:50:07;;;;;;;11.83;4.03;;;;;;;17.58;42.95;99872.70;124795;1099;104160;-75
2023/10/08 00:52:43;;;;;;;9.67;3.77;;;;;;;17.61;43.38;99875.34;124908;1099;104169;-75
2023/10/08 00:55:24;;;;;;;11.17;3.90;;;;;;;17.64;43.17;99871.81;124894;1099;102569;-76
2023/10/08 00:58:11;;;;;;;9.63;3.90;;;;;;;17.66;42.76;99875.33;124820;1099;101941;-74
2023/10/08 01:00:44;;;;;;;8.97;3.90;;;;;;;17.68;43.09;99868.23;124777;1099;104265;-75
2023/10/08 01:03:16;;;;;;;10.07;4.00;;;;;;;17.70;43.01;99869.14;124742;1098;104210;-74
2023/10/08 01:05:47;;;;;;;8.57;3.40;;;;;;;17.69;43.45;99875.32;124795;1099;104183;-75
2023/10/08 01:08:22;;;;;;;11.10;4.50;;;;;;;17.72;43.24;99877.97;124719;1098;102014;-75
2023/10/08 01:11:00;;;;;;;6.37;3.60;;;;;;;17.73;43.42;99870.87;124780;1099;104191;-76
2023/10/08 01:13:44;;;;;;;11.17;3.90;;;;;;;17.73;43.33;99873.53;124875;1099;104184;-75
2023/10/08 01:16:18;;;;;;;8.63;3.45;;;;;;;17.75;43.22;99869.13;124713;1099;104216;-76
2023/10/08 01:18:54;;;;;;;10.70;4.17;;;;;;;17.76;43.18;99860.25;124924;1099;104230;-76
2023/10/08 01:21:39;;;;;;;9.83;3.93;;;;;;;17.79;43.36;99862.89;124868;1099;104623;-76
2023/10/08 01:24:16;;;;;;;13.90;4.03;;;;;;;17.79;43.30;99854.94;124883;1098;104282;-76
2023/10/08 01:26:47;;;;;;;11.13;4.17;;;;;;;17.81;43.46;99853.18;124812;1099;102665;-76
2023/10/08 01:29:24;;;;;;;9.97;4.20;;;;;;;17.82;43.45;99856.70;124930;1099;104163;-76
2023/10/08 01:31:56;;;;;;;8.40;3.83;;;;;;;17.82;43.42;99857.58;124929;1099;101883;-76
2023/10/08 01:34:31;;;;;;;8.33;3.87;;;;;;;17.85;43.30;99854.91;124869;1099;104242;-76
2023/10/08 01:37:08;;;;;;;10.03;4.00;;;;;;;17.84;43.28;99847.86;124843;1099;104101;-76
2023/10/08 01:39:42;;;;;;;12.03;4.47;;;;;;;17.85;43.34;99854.03;124743;1099;104166;-76
2023/10/08 01:42:16;;;;;;;;;;;;;;;17.83;43.24;99856.70;124894;1098;104179;-76
2023/10/08 01:44:50;;;;;;;11.43;3.75;;;;;;;17.84;43.33;99847.86;124974;1099;104157;-76
2023/10/08 01:47:25;;;;;;;9.80;4.20;;;;;;;17.84;43.40;99844.30;124846;1099;104303;-76
2023/10/08 01:50:06;;;;;;;12.00;3.57;;;;;;;17.84;43.34;99847.86;124843;1099;104188;-76
2023/10/08 01:52:40;;;;;;;14.17;3.90;;;;;;;17.83;43.41;99838.12;124770;1099;104159;-76
2023/10/08 01:55:17;;;;;;;9.37;4.27;;;;;;;17.85;43.58;99831.02;124915;1099;101852;-76
2023/10/08 01:57:49;;;;;;;8.93;4.10;;;;;;;17.86;43.46;99831.92;124475;1099;102124;-75
2023/10/08 02:00:21;;;;;;;9.73;4.10;;;;;;;17.86;43.62;99829.27;124857;1099;101999;-74
2023/10/08 02:02:53;;;;;;;9.70;3.90;;;;;;;17.86;43.47;99824.84;124375;1099;102095;-75
2023/10/08 02:05:25;;;;;;;7.40;3.50;;;;;;;17.88;43.51;99827.48;124900;1099;101824;-74
2023/10/08 02:07:58;;;;;;;10.07;3.90;;;;;;;17.90;43.75;99836.34;124816;1098;104268;-75
2023/10/08 02:10:30;;;;;;;11.37;4.10;;;;;;;17.90;43.56;99831.94;124895;1099;101823;-75
2023/10/08 02:13:01;;;;;;;13.37;4.30;;;;;;;17.91;43.73;99825.72;124369;1099;104369;-75
2023/10/08 02:15:32;;;;;;;9.83;3.80;;;;;;;17.92;43.51;99832.80;124366;1100;104166;-75
2023/10/08 02:18:04;;;;;;;11.00;4.00;;;;;;;17.94;43.85;99816.88;124837;1099;102083;-75
2023/10/08 02:20:35;;;;;;;10.87;4.10;;;;;;;17.94;43.83;99815.09;124462;1099;104166;-75
2023/10/08 02:23:07;;;;;;;10.15;3.90;;;;;;;17.95;43.69;99805.34;124416;1099;101928;-76
2023/10/08 02:25:39;;;;;;;10.83;3.43;;;;;;;17.95;43.87;99803.59;124523;1099;104335;-76
2023/10/08 02:28:12;;;;;;;8.65;3.70;;;;;;;17.96;43.78;99805.34;124369;1099;104348;-76
2023/10/08 02:30:44;;;;;;;9.13;4.07;;;;;;;17.96;43.93;99802.68;124483;1099;102056;-76
2023/10/08 02:33:15;;;;;;;10.40;3.90;;;;;;;17.95;43.94;99798.28;124409;1099;102275;-76
2023/10/08 02:35:49;;;;;;;7.17;3.47;;;;;;;17.95;44.08;99785.02;124407;1099;104740;-76
2023/10/08 02:38:22;;;;;;;8.15;3.85;;;;;;;17.95;43.90;99784.11;124409;1099;104238;-76
2023/10/08 02:40:56;;;;;;;8.63;3.75;;;;;;;17.95;43.90;99784.11;124902;1098;104191;-76
2023/10/08 02:43:28;;;;;;;11.07;4.00;;;;;;;17.96;44.09;99789.41;124386;1102;102336;-75
2023/10/08 02:46:00;;;;;;;10.93;3.93;;;;;;;17.98;44.18;99785.88;124643;1099;104197;-74
2023/10/08 02:48:31;;;;;;;11.07;4.20;;;;;;;17.98;44.04;99781.44;124798;1099;104268;-75
2023/10/08 02:51:13;;;;;;;12.27;4.37;;;;;;;17.98;44.29;99775.26;124710;1099;104162;-75
2023/10/08 02:53:46;;;;;;;11.53;3.97;;;;;;;17.98;44.06;99769.95;124349;1099;104169;-75
2023/10/08 02:56:18;;;;;;;11.93;3.95;;;;;;;17.99;44.31;99766.41;124383;1098;104268;-75
2023/10/08 02:58:49;;;;;;;11.73;4.20;;;;;;;18.00;43.98;99762.84;124329;1099;104195;-75
2023/10/08 03:01:21;;;;;;;7.47;3.53;;;;;;;18.00;44.30;99763.75;124347;1099;104245;-75
2023/10/08 03:04:01;;;;;;;11.87;4.27;;;;;;;18.00;44.05;99752.23;124441;1099;104217;-75
2023/10/08 03:06:33;;;;;;;13.07;4.10;;;;;;;18.01;44.31;99757.53;124320;1099;104166;-76
2023/10/08 03:09:04;;;;;;;6.80;3.60;;;;;;;17.99;44.19;99759.33;124304;1099;102018;-75
2023/10/08 03:11:37;;;;;;;8.20;3.77;;;;;;;17.99;44.27;99754.02;124464;1099;104166;-75
2023/10/08 03:14:14;;;;;;;10.20;3.93;;;;;;;18.00;44.14;99749.58;124810;1098;104235;-72
2023/10/08 03:16:48;;;;;;;10.90;4.20;;;;;;;18.00;44.48;99738.96;124586;1099;104159;-73
2023/10/08 03:19:21;;;;;;;13.50;3.70;;;;;;;18.00;44.17;99736.30;124592;1099;104153;-73
2023/10/08 03:21:55;;;;;;;8.73;4.03;;;;;;;18.01;44.49;99730.11;124369;1099;104255;-72
2023/10/08 03:27:15;;;;;;;11.33;4.33;;;;;;;18.01;44.34;99719.50;124557;1099;104217;-72
2023/10/08 03:29:46;;;;;;;9.17;3.77;;;;;;;18.03;44.47;99725.66;124765;1099;118643;-72
2023/10/08 03:32:26;;;;;;;12.97;4.13;;;;;;;18.05;44.32;99726.56;124607;1098;104201;-73
2023/10/08 03:34:59;;;;;;;8.90;3.90;;;;;;;18.06;44.20;99721.23;124469;1099;102272;-73
2023/10/08 03:37:40;;;;;;;12.57;4.27;;;;;;;18.08;44.41;99718.57;124467;1099;101849;-73
2023/10/08 03:40:25;;;;;;;11.07;3.87;;;;;;;18.11;44.39;99723.86;124439;1099;104176;-73
2023/10/08 03:42:58;;;;;;;9.33;3.93;;;;;;;18.10;44.44;99717.65;124443;1098;104188;-73
2023/10/08 03:48:22;;;;;;;9.43;4.00;;;;;;;18.14;44.36;99715.88;124494;1099;102148;-74
2023/10/08 03:50:56;;;;;;;10.27;3.80;;;;;;;18.14;44.36;99713.22;124611;1099;102223;-73
2023/10/08 03:53:30;;;;;;;13.10;3.75;;;;;;;18.13;44.33;99716.75;124914;1099;104194;-73
2023/10/08 03:56:05;;;;;;;;;;;;;;;18.13;44.59;99708.79;124730;1099;104249;-74
2023/10/08 03:58:41;;;;;;;9.33;3.80;;;;;;;18.14;44.65;99707.91;124298;1099;101957;-73
2023/10/08 04:01:18;;;;;;;9.33;4.10;;;;;;;18.14;44.59;99706.13;124483;1099;104060;-73
2023/10/08 04:03:59;;;;;;;9.93;3.70;;;;;;;18.16;44.71;99710.55;124330;1099;104249;-72
2023/10/08 04:06:37;;;;;;;8.87;3.73;;;;;;;18.15;44.51;99704.34;124488;1099;104284;-72
2023/10/08 04:09:16;;;;;;;7.73;3.77;;;;;;;18.14;44.41;99708.78;124257;1099;102496;-73
2023/10/08 04:11:53;;;;;;;13.83;4.03;;;;;;;18.16;44.46;99699.93;124455;1099;104230;-74
2023/10/08 04:14:28;;;;;;;10.03;4.10;;;;;;;18.15;44.58;99704.34;124302;1099;102775;-73
2023/10/08 04:16:59;;;;;;;10.47;3.70;;;;;;;18.16;44.68;99698.14;124421;1099;104179;-71
2023/10/08 04:19:32;;;;;;;11.57;3.90;;;;;;;18.17;44.61;99697.27;124383;1099;104251;-73
2023/10/08 04:22:04;;;;;;;13.97;4.17;;;;;;;18.17;44.65;99702.58;124656;1099;104309;-73
2023/10/08 04:24:35;;;;;;;11.83;4.23;;;;;;;18.19;44.56;99691.94;124689;1099;104357;-72
2023/10/08 04:27:09;;;;;;;12.70;4.40;;;;;;;18.19;44.79;99687.50;124825;1098;101858;-72
2023/10/08 04:29:42;;;;;;;12.80;4.33;;;;;;;18.19;44.64;99687.50;124725;1099;101941;-73
2023/10/08 04:32:22;;;;;;;8.93;4.07;;;;;;;18.20;44.86;99691.02;124298;1099;101962;-73
2023/10/08 04:34:56;;;;;;;11.70;4.00;;;;;;;18.21;44.94;99703.42;124665;1099;104166;-74
2023/10/08 04:37:32;;;;;;;;;;;;;;;18.21;44.88;99696.32;124773;1099;104172;-73
2023/10/08 04:40:04;;;;;;;9.20;4.20;;;;;;;18.23;44.93;99691.91;124854;1099;101775;-72
2023/10/08 04:42:37;;;;;;;9.15;3.75;;;;;;;18.25;44.77;99692.77;124726;1099;104185;-74
2023/10/08 04:45:13;;;;;;;11.53;3.50;;;;;;;18.26;44.76;99691.88;124479;1099;101830;-73
2023/10/08 04:47:44;;;;;;;12.55;4.10;;;;;;;18.29;44.93;99697.16;124805;1099;101969;-74
2023/10/08 04:50:30;;;;;;;14.03;4.10;;;;;;;18.30;44.86;99698.03;124734;1099;104204;-72
2023/10/08 04:53:07;;;;;;;13.73;4.00;;;;;;;18.32;45.33;99702.45;124788;1098;102326;-74
2023/10/08 04:55:48;;;;;;;10.63;4.00;;;;;;;18.35;44.94;99697.99;124754;1099;104239;-74
2023/10/08 04:58:31;;;;;;;11.13;3.73;;;;;;;18.36;45.02;99695.33;124805;1099;101948;-74
2023/10/08 05:01:17;;;;;;;11.77;4.13;;;;;;;18.36;45.07;99687.36;124727;1098;102328;-75
2023/10/08 05:04:07;;;;;;;11.13;3.87;;;;;;;18.38;45.20;99700.62;124565;1099;104241;-74
2023/10/08 05:07:00;;;;;;;10.73;4.27;;;;;;;18.37;45.09;99707.72;124375;1099;104188;-74
2023/10/08 05:09:51;;;;;;;11.50;3.93;;;;;;;18.37;45.06;99710.38;124551;1098;104188;-74
2023/10/08 05:15:33;;;;;;;8.93;3.93;;;;;;;18.39;44.65;99713.02;124379;1099;104174;-75
2023/10/08 05:18:23;;;;;;;12.60;4.03;;;;;;;18.39;45.39;99716.55;124652;1099;104072;-75
2023/10/08 05:21:03;;;;;;;8.67;3.87;;;;;;;18.39;45.20;99713.89;124656;1099;102338;-76
2023/10/08 05:24:08;;;;;;;10.65;4.10;;;;;;;18.42;45.40;99718.30;124625;1099;104201;-76
2023/10/08 05:26:59;;;;;;;12.57;3.90;;;;;;;18.44;45.64;99713.84;124290;1099;102770;-75
2023/10/08 05:32:44;;;;;;;9.80;4.10;;;;;;;18.45;45.36;99712.94;124412;1099;104156;-75
2023/10/08 05:38:16;;;;;;;14.07;4.33;;;;;;;18.47;45.36;99719.13;124546;1099;102783;-75
2023/10/08 05:41:16;;;;;;;11.33;4.17;;;;;;;18.48;45.21;99707.59;124635;1099;104192;-75
2023/10/08 05:44:14;;;;;;;13.90;4.50;;;;;;;18.48;45.51;99705.84;124909;1099;102012;-76
2023/10/08 05:46:49;;;;;;;10.63;4.10;;;;;;;18.52;45.41;99713.78;124590;1099;104174;-75
2023/10/08 05:52:25;;;;;;;11.23;4.50;;;;;;;18.56;45.44;99707.52;124223;1099;102236;-74
2023/10/08 05:57:52;;;;;;;10.23;4.00;;;;;;;18.61;45.64;99680.02;124436;1099;104169;-75
2023/10/08 06:03:31;;;;;;;11.27;4.10;;;;;;;18.67;45.59;99684.41;124841;1099;101823;-76
2023/10/08 06:06:25;;;;;;;10.40;4.20;;;;;;;18.70;45.43;99679.06;124905;1099;104236;-77
2023/10/08 06:11:56;;;;;;;12.70;4.37;;;;;;;18.82;45.74;99670.95;124832;1099;104166;-77
2023/10/08 06:14:42;;;;;;;11.93;4.13;;;;;;;18.88;45.95;99675.33;125022;1099;104333;-78
2023/10/08 06:17:23;;;;;;;12.80;4.50;;;;;;;18.96;45.53;99670.80;124580;1099;104254;-77
2023/10/08 06:19:55;;;;;;;14.40;4.50;;;;;;;19.03;45.99;99671.63;125034;1099;104166;-77
2023/10/08 06:22:26;;;;;;;12.23;4.47;;;;;;;19.11;45.71;99660.91;124850;1099;101945;-78
2023/10/08 06:25:18;;;;;;;11.83;4.50;;;;;;;19.17;45.46;99652.84;124862;1099;104258;-76
2023/10/08 06:27:53;;;;;;;8.93;4.57;;;;;;;19.24;46.01;99646.52;124637;1099;104741;-77
2023/10/08 06:30:28;;;;;;;11.53;4.60;;;;;;;19.31;45.98;99644.69;124815;1099;102415;-77
2023/10/08 06:33:00;;;;;;;11.30;4.23;;;;;;;19.37;45.32;99642.81;124475;1099;104233;-79
2023/10/08 06:35:33;;;;;;;11.00;4.50;;;;;;;19.44;45.86;99638.27;124707;1099;104188;-77
2023/10/08 06:38:09;;;;;;;11.13;4.60;;;;;;;19.49;45.25;99647.05;124521;1099;104319;-77
2023/10/08 06:40:44;;;;;;;13.63;4.60;;;;;;;19.55;46.25;99648.77;124564;1099;104191;-77
2023/10/08 06:43:16;;;;;;;11.63;5.03;;;;;;;19.62;45.26;99646.88;124764;1099;104535;-76
2023/10/08 06:45:52;;;;;;;11.37;4.47;;;;;;;19.68;45.99;99660.09;124924;1099;104211;-77
2023/10/08 06:48:24;;;;;;;12.93;4.37;;;;;;;19.73;45.64;99650.28;124987;1099;104198;-77
2023/10/08 06:50:56;;;;;;;14.73;4.63;;;;;;;19.80;45.74;99651.09;124941;1099;104204;-76
2023/10/08 06:53:29;;;;;;;13.33;4.63;;;;;;;19.85;45.79;99652.79;124967;1099;104221;-78
2023/10/08 06:56:04;;;;;;;12.00;4.53;;;;;;;19.87;45.70;99652.77;124863;1098;104169;-77
2023/10/08 06:58:35;;;;;;;12.07;4.17;;;;;;;19.88;45.68;99655.41;124893;1098;104626;-77
2023/10/08 07:01:08;;;;;;;13.30;4.30;;;;;;;19.89;45.83;99656.27;124677;1099;101952;-76
2023/10/08 07:03:39;;;;;;;11.35;4.30;;;;;;;19.89;45.06;99662.46;124554;1096;104248;-77
2023/10/08 07:06:25;;;;;;;11.13;4.30;;;;;;;19.95;45.32;99666.83;124468;1099;104227;-76
2023/10/08 07:08:59;;;;;;;12.37;4.67;;;;;;;20.04;45.50;99668.44;124617;1099;104233;-76
2023/10/08 07:11:34;;;;;;;13.83;4.60;;;;;;;20.14;45.00;99661.20;124858;1099;104242;-77
2023/10/08 07:14:05;;;;;;;13.57;4.43;;;;;;;20.24;44.97;99673.44;124926;1099;104242;-78
2023/10/08 07:16:37;;;;;;;9.43;4.20;;;;;;;20.31;45.61;99680.42;124862;1099;104251;-77
2023/10/08 07:19:17;;;;;;;12.90;4.95;;;;;;;20.39;45.21;99677.63;124741;1098;102051;-77
2023/10/08 07:21:54;;;;;;;13.47;4.30;;;;;;;20.46;45.61;99680.16;124908;1099;104179;-76
2023/10/08 07:24:25;;;;;;;12.87;4.53;;;;;;;20.54;44.51;99674.69;124724;1099;104334;-76
2023/10/08 07:26:56;;;;;;;13.70;4.40;;;;;;;20.58;45.07;99670.17;124552;1099;101846;-77
2023/10/08 07:29:27;;;;;;;9.67;4.37;;;;;;;20.63;45.32;99677.19;124605;1099;104179;-76
2023/10/08 07:32:09;;;;;;;11.17;4.60;;;;;;;20.68;45.12;99670.91;124630;1099;104332;-76
2023/10/08 07:34:41;;;;;;;11.13;4.67;;;;;;;20.72;45.44;99676.15;124332;1099;104647;-76
2023/10/08 07:37:16;;;;;;;12.47;4.37;;;;;;;20.79;45.01;99672.47;124505;1099;104207;-76
2023/10/08 07:39:47;;;;;;;13.05;4.55;;;;;;;20.83;45.11;99673.28;124415;1099;104201;-77
2023/10/08 07:42:18;;;;;;;12.30;4.43;;;;;;;20.92;45.02;99680.23;124654;1099;101989;-77
2023/10/08 07:44:54;;;;;;;11.80;4.20;;;;;;;21.01;44.43;99710.25;124528;1099;104326;-77
2023/10/08 07:47:27;;;;;;;13.50;4.13;;;;;;;21.07;44.80;99719.93;124528;1099;104303;-77
2023/10/08 07:49:59;;;;;;;14.35;4.00;;;;;;;21.04;45.16;99733.33;124462;1099;104227;-75
2023/10/08 07:52:31;;;;;;;14.07;3.63;;;;;;;20.88;45.69;99743.41;124858;1099;102037;-76
2023/10/08 07:55:05;;;;;;;12.20;3.60;;;;;;;20.61;45.71;99763.41;124904;1099;101999;-77
2023/10/08 07:57:36;;;;;;;10.90;3.43;;;;;;;20.27;47.09;99782.60;124960;1099;104393;-77
2023/10/08 08:00:18;;;;;;;11.70;3.70;;;;;;;19.90;46.74;99788.49;125066;1099;104213;-77
2023/10/08 08:02:52;;;;;;;10.80;3.50;;;;;;;19.51;46.93;99804.02;125098;1099;104159;-76
2023/10/08 08:05:25;;;;;;;7.40;2.67;;;;;;;19.21;47.45;99816.77;125050;1099;104198;-78
2023/10/08 08:07:59;;;;;;;14.80;3.33;;;;;;;18.98;47.50;99825.87;124719;1099;104239;-78
2023/10/08 08:10:36;;;;;;;9.50;3.23;;;;;;;18.80;48.04;99829.53;125086;1099;102252;-77
2023/10/08 08:13:08;;;;;;;5.73;3.20;;;;;;;18.65;48.20;99830.56;124857;1099;101860;-77
2023/10/08 08:15:42;;;;;;;4.97;2.50;;;;;;;18.49;49.63;99831.56;124918;1099;104169;-77
2023/10/08 08:18:22;;;;;;;3.17;2.10;;;;;;;18.22;49.19;99828.20;124904;1099;104275;-77
2023/10/08 08:20:59;;;;;;;6.97;2.53;;;;;;;17.95;50.28;99855.77;125007;1098;102022;-76
2023/10/08 08:23:33;;;;;;;3.70;2.20;;;;;;;17.78;50.11;99851.41;124972;1099;102018;-78
2023/10/08 08:26:11;;;;;;;4.80;2.27;;;;;;;17.70;50.28;99847.01;125100;1099;104166;-78
2023/10/08 08:28:46;;;;;;;5.60;2.10;;;;;;;17.65;50.68;99860.29;125172;1098;102103;-77
2023/10/08 08:31:19;;;;;;;7.03;2.43;;;;;;;17.56;50.73;99847.05;124743;1099;104283;-77
2023/10/08 08:33:53;;;;;;;3.42;1.82;;;;;;;17.48;50.73;99862.99;124760;1099;104165;-78
2023/10/08 08:36:25;;;;;;;3.93;2.20;;;;;;;17.46;50.92;99870.08;125239;1099;107818;-79
2023/10/08 08:38:56;;;;;;;3.47;2.03;;;;;;;17.40;51.31;99870.09;125204;1099;104281;-78
2023/10/08 08:41:28;;;;;;;5.13;2.47;;;;;;;17.36;51.78;99871.00;125417;1099;104184;-78
2023/10/08 08:44:00;;;;;;;3.97;2.37;;;;;;;17.25;51.60;99885.16;125355;1099;104268;-79
2023/10/08 08:46:36;;;;;;;3.10;2.20;;;;;;;17.20;51.34;99880.73;124969;1098;102534;-79
2023/10/08 08:49:09;;;;;;;4.07;2.33;;;;;;;17.20;51.69;99894.89;125183;1099;104332;-78
2023/10/08 08:51:41;;;;;;;10.35;3.55;;;;;;;17.16;52.55;99906.38;125277;1098;101877;-79
2023/10/08 08:54:14;;;;;;;5.23;2.83;;;;;;;17.06;52.61;99910.80;125308;1098;101845;-78
2023/10/08 08:56:45;;;;;;;;;;;;;;;16.94;53.27;99909.89;125326;1099;102041;-77
2023/10/08 08:59:17;;;;;;;7.87;2.87;;;;;;;16.84;53.19;99914.28;124994;1099;104316;-77
2023/10/08 09:01:50;;;;;;;4.93;2.20;;;;;;;16.73;53.64;99913.40;125236;1099;101948;-79
2023/10/08 09:04:31;;;;;;;4.80;1.95;;;;;;;16.60;53.34;99904.55;125651;1099;102164;-79
2023/10/08 09:07:04;;;;;;;5.50;1.70;;;;;;;16.52;53.26;99923.95;125212;1099;111617;-80
2023/10/08 09:09:39;;;;;;;4.65;2.05;;;;;;;16.43;54.05;99946.89;124905;1099;102293;-79
2023/10/08 09:12:11;;;;;;;4.13;1.40;;;;;;;16.17;55.74;99969.75;125140;1099;104172;-80
2023/10/08 09:14:44;;;;;;;2.17;1.37;;;;;;;15.97;53.86;99976.68;124927;1099;104342;-79
2023/10/08 09:17:17;;;;;;;6.10;2.23;;;;;;;15.86;55.31;99992.49;125502;1099;101890;-80
2023/10/08 09:19:49;;;;;;;5.23;1.60;;;;;;;15.64;56.06;99997.64;125068;1098;104211;-79
2023/10/08 09:22:20;;;;;;;4.57;1.53;;;;;;;15.32;55.43;100013.25;125293;1099;104657;-78
2023/10/08 09:24:54;;;;;;;6.97;1.73;;;;;;;15.03;56.10;100007.69;124640;1099;102660;-78
2023/10/08 09:27:30;;;;;;;2.33;1.57;;;;;;;14.86;57.27;100020.73;124992;1099;104262;-78
2023/10/08 09:30:08;;;;;;;3.40;1.27;;;;;;;14.55;57.89;100037.09;125242;1099;102057;-77
2023/10/08 09:32:44;;;;;;;1.50;1.10;;;;;;;14.33;57.29;100033.27;124905;1099;101969;-78
2023/10/08 09:35:16;;;;;;;1.80;1.00;;;;;;;14.13;58.37;100029.48;124997;1099;104245;-77
2023/10/08 09:37:47;;;;;;;1.43;1.00;;;;;;;13.92;59.02;100030.97;125198;1099;102361;-77
2023/10/08 09:40:22;;;;;;;1.30;0.73;;;;;;;13.68;60.06;100071.05;125234;1099;102185;-79
2023/10/08 09:42:54;;;;;;;1.20;0.90;;;;;;;13.45;60.89;100071.54;125382;1097;104183;-78
2023/10/08 09:45:26;;;;;;;1.77;0.90;;;;;;;13.19;60.21;100092.12;124797;1098;104182;-77
2023/10/08 09:47:59;;;;;;;2.03;1.47;;;;;;;13.06;63.34;100108.57;124646;1099;101931;-78
2023/10/08 09:50:33;;;;;;;1.87;1.47;;;;;;;12.85;62.26;100096.73;125032;1099;104272;-78
2023/10/08 09:53:16;;;;;;;1.80;1.10;;;;;;;12.71;62.75;100116.63;124961;1099;102170;-79
2023/10/08 09:55:54;;;;;;;1.53;1.20;;;;;;;12.52;64.96;100141.67;124818;1099;104169;-77
2023/10/08 09:58:28;;;;;;;4.67;1.73;;;;;;;12.17;66.85;100137.40;125296;1099;110794;-78
2023/10/08 10:01:00;;;;;;;2.92;1.65;;;;;;;11.90;66.41;100140.20;125283;1099;102000;-77
2023/10/08 10:03:34;;;;;;;2.47;1.83;;;;;;;11.76;65.80;100146.87;124943;1099;101937;-79
2023/10/08 10:06:09;;;;;;;3.90;1.60;;;;;;;11.58;66.69;100169.20;125252;1098;101922;-77
2023/10/08 10:08:41;;;;;;;2.93;1.60;;;;;;;11.44;66.76;100173.22;125084;1099;104176;-79
2023/10/08 10:11:12;;;;;;;3.70;1.73;;;;;;;11.28;67.22;100170.17;124942;1099;104245;-78
2023/10/08 10:13:47;;;;;;;3.73;2.00;;;;;;;11.20;66.13;100169.05;124602;1098;104230;-77
2023/10/08 10:16:23;;;;;;;4.50;2.00;;;;;;;11.12;66.84;100163.58;124931;1099;102102;-77
2023/10/08 10:18:59;;;;;;;7.00;2.03;;;;;;;11.15;65.97;100158.41;124458;1099;107009;-77
2023/10/08 10:21:34;;;;;;;5.50;1.80;;;;;;;11.26;66.18;100147.33;125047;1099;104236;-77
2023/10/08 10:24:22;;;;;;;4.43;2.10;;;;;;;11.33;66.04;100149.28;124857;1099;104194;-78
2023/10/08 10:27:10;;;;;;;6.77;2.07;;;;;;;11.38;66.09;100171.30;124851;1098;104236;-75
2023/10/08 10:29:43;;;;;;;5.50;1.87;;;;;;;11.35;65.77;100184.35;124885;1099;104188;-76
2023/10/08 10:32:15;;;;;;;3.20;1.60;;;;;;;11.41;65.00;100179.27;125039;1099;104491;-75
2023/10/08 10:34:51;;;;;;;6.33;2.30;;;;;;;11.48;65.45;100185.56;124843;1099;104287;-76
2023/10/08 10:37:24;;;;;;;4.73;1.83;;;;;;;11.48;65.08;100189.10;124470;1099;104306;-75
2023/10/08 10:39:59;;;;;;;7.17;2.10;;;;;;;11.51;65.02;100197.07;124763;1099;104274;-76
2023/10/08 10:42:31;;;;;;;4.73;2.00;;;;;;;11.59;65.15;100194.61;124575;1099;104277;-75
2023/10/08 10:45:09;;;;;;;4.37;2.00;;;;;;;11.62;65.18;100201.70;124919;1099;104178;-74
2023/10/08 10:47:46;;;;;;;4.57;1.90;;;;;;;11.65;65.41;100192.16;124724;1099;104265;-76
2023/10/08 10:50:26;;;;;;;3.10;1.93;;;;;;;11.71;64.84;100188.80;125114;1098;104239;-76
2023/10/08 10:52:58;;;;;;;6.07;2.00;;;;;;;11.76;64.61;100192.44;125106;1099;101890;-75
2023/10/08 10:55:32;;;;;;;4.53;1.93;;;;;;;11.82;65.25;100183.83;124949;1099;104245;-75
2023/10/08 11:00:59;;;;;;;4.83;2.17;;;;;;;11.88;65.12;100186.61;124363;1099;102112;-75
2023/10/08 11:03:34;;;;;;;7.33;2.33;;;;;;;11.87;65.26;100183.11;124711;1099;101855;-75
2023/10/08 11:06:15;;;;;;;6.37;2.40;;;;;;;11.92;64.94;100183.26;124697;1099;104245;-74
2023/10/08 11:08:46;;;;;;;4.23;2.10;;;;;;;11.95;65.01;100187.68;124858;1099;104191;-75
2023/10/08 11:11:19;;;;;;;5.03;2.07;;;;;;;12.00;65.58;100199.23;124710;1099;104169;-76
2023/10/08 11:13:54;;;;;;;3.90;2.10;;;;;;;11.96;64.68;100192.98;124952;1098;104214;-76
2023/10/08 11:16:27;;;;;;;5.27;2.17;;;;;;;11.97;64.67;100191.27;124768;1099;104236;-76
2023/10/08 11:19:06;;;;;;;3.47;1.87;;;;;;;11.98;64.66;100195.64;124793;1099;102247;-77
2023/10/08 11:21:51;;;;;;;5.23;1.97;;;;;;;12.01;64.43;100191.38;124851;1099;104327;-76
2023/10/08 11:24:33;;;;;;;8.03;2.20;;;;;;;12.08;64.36;100197.67;124944;1099;101875;-76
2023/10/08 11:27:16;;;;;;;5.43;2.53;;;;;;;12.12;63.93;100199.50;124467;1099;104274;-76
2023/10/08 11:29:56;;;;;;;4.53;1.90;;;;;;;12.16;63.57;100196.11;124592;1099;104329;-75
2023/10/08 11:32:32;;;;;;;7.47;2.17;;;;;;;12.18;63.35;100204.03;124775;1099;101935;-76
2023/10/08 11:35:15;;;;;;;4.53;1.80;;;;;;;12.24;63.28;100212.08;124527;1099;101906;-76
2023/10/08 11:37:50;;;;;;;6.33;2.23;;;;;;;12.32;62.56;100214.89;124948;1099;101849;-76
2023/10/08 11:40:29;;;;;;;4.35;2.05;;;;;;;12.37;62.73;100216.80;124679;1099;104204;-75
2023/10/08 11:43:03;;;;;;;3.13;1.70;;;;;;;12.39;62.50;100214.20;124619;1099;104329;-75
2023/10/08 11:45:39;;;;;;;3.40;2.00;;;;;;;12.43;61.78;100213.40;124621;1099;104204;-76
2023/10/08 11:48:13;;;;;;;4.40;2.00;;;;;;;12.46;61.66;100207.33;124244;1099;103271;-76
2023/10/08 11:50:43;;;;;;;;;;;;;;;12.44;60.86;100207.30;124429;1099;102319;-76
2023/10/08 11:53:14;;;;;;;4.67;1.90;;;;;;;12.42;60.93;100203.75;124840;1099;104178;-76
2023/10/08 11:55:47;;;;;;;5.20;2.20;;;;;;;12.47;61.00;100212.63;124944;1099;101872;-76
2023/10/08 11:58:20;;;;;;;5.10;2.00;;;;;;;12.49;60.55;100216.17;124946;1099;102019;-76
2023/10/08 12:00:53;;;;;;;6.13;1.60;;;;;;;12.53;60.79;100210.14;124691;1099;118857;-76
2023/10/08 12:03:26;;;;;;;4.30;1.87;;;;;;;12.55;60.51;100216.31;124661;1099;104464;-77
2023/10/08 12:05:59;;;;;;;3.27;1.80;;;;;;;12.55;60.09;100221.58;124479;1099;104188;-77
2023/10/08 12:08:39;;;;;;;4.93;2.00;;;;;;;12.51;60.10;100213.58;124816;1099;102248;-77
2023/10/08 12:11:11;;;;;;;3.50;1.60;;;;;;;12.50;59.88;100207.44;125019;1099;101840;-77
2023/10/08 12:13:45;;;;;;;3.17;2.00;;;;;;;12.52;59.88;100197.83;125040;1099;102295;-77
2023/10/08 12:16:21;;;;;;;5.80;2.10;;;;;;;12.57;59.58;100209.37;124927;1099;102195;-76
2023/10/08 12:18:58;;;;;;;4.73;1.73;;;;;;;12.57;59.10;100208.45;125004;1099;104261;-77